sensor_id;sensor_type;location;lat;lon;timestamp;P1;durP1;ratioP1;P2;durP2;ratioP2
22131;SDS011;11232;51.748;19.390;2023-03-12T00:00:38;19.30;;;8.63;;
22131;SDS011;11232;51.748;19.390;2023-03-12T00:03:04;20.93;;;9.73;;
22131;SDS011;11232;51.748;19.390;2023-03-12T00:05:35;18.50;;;9.10;;
22131;SDS011;11232;51.748;19.390;2023-03-12T00:08:01;22.97;;;9.43;;
22131;SDS011;11232;51.748;19.390;2023-03-12T00:10:28;23.43;;;10.33;;
22131;SDS011;11232;51.748;19.390;2023-03-12T00:12:54;25.30;;;10.77;;
22131;SDS011;11232;51.748;19.390;2023-03-12T00:15:23;26.10;;;10.40;;
22131;SDS011;11232;51.748;19.390;2023-03-12T00:17:49;29.53;;;10.63;;
22131;SDS011;11232;51.748;19.390;2023-03-12T00:20:16;29.30;;;11.10;;
22131;SDS011;11232;51.748;19.390;2023-03-12T00:22:45;23.57;;;10.93;;
22131;SDS011;11232;51.748;19.390;2023-03-12T00:25:12;24.60;;;11.63;;
22131;SDS011;11232;51.748;19.390;2023-03-12T00:27:38;22.73;;;11.50;;
22131;SDS011;11232;51.748;19.390;2023-03-12T00:30:07;23.40;;;10.77;;
22131;SDS011;11232;51.748;19.390;2023-03-12T00:32:34;24.10;;;11.07;;
22131;SDS011;11232;51.748;19.390;2023-03-12T00:35:01;24.77;;;10.67;;
22131;SDS011;11232;51.748;19.390;2023-03-12T00:37:27;21.53;;;10.50;;
22131;SDS011;11232;51.748;19.390;2023-03-12T00:39:53;25.53;;;10.33;;
22131;SDS011;11232;51.748;19.390;2023-03-12T00:42:19;23.03;;;10.30;;
22131;SDS011;11232;51.748;19.390;2023-03-12T00:44:45;23.37;;;10.60;;
22131;SDS011;11232;51.748;19.390;2023-03-12T00:47:11;24.57;;;10.33;;
22131;SDS011;11232;51.748;19.390;2023-03-12T00:49:40;27.93;;;10.17;;
22131;SDS011;11232;51.748;19.390;2023-03-12T00:52:06;19.77;;;10.10;;
22131;SDS011;11232;51.748;19.390;2023-03-12T00:54:32;21.33;;;9.97;;
22131;SDS011;11232;51.748;19.390;2023-03-12T00:56:58;21.87;;;9.20;;
22131;SDS011;11232;51.748;19.390;2023-03-12T00:59:24;20.90;;;9.73;;
22131;SDS011;11232;51.748;19.390;2023-03-12T01:01:50;21.53;;;10.57;;
22131;SDS011;11232;51.748;19.390;2023-03-12T01:04:16;23.03;;;10.23;;
22131;SDS011;11232;51.748;19.390;2023-03-12T01:06:42;28.50;;;11.33;;
22131;SDS011;11232;51.748;19.390;2023-03-12T01:09:11;24.50;;;10.90;;
22131;SDS011;11232;51.748;19.390;2023-03-12T01:11:40;22.47;;;10.83;;
22131;SDS011;11232;51.748;19.390;2023-03-12T01:14:07;25.37;;;11.77;;
22131;SDS011;11232;51.748;19.390;2023-03-12T01:16:33;24.17;;;11.37;;
22131;SDS011;11232;51.748;19.390;2023-03-12T01:18:59;24.83;;;12.07;;
22131;SDS011;11232;51.748;19.390;2023-03-12T01:21:26;27.00;;;12.67;;
22131;SDS011;11232;51.748;19.390;2023-03-12T01:23:53;33.30;;;13.33;;
22131;SDS011;11232;51.748;19.390;2023-03-12T01:26:19;27.97;;;12.20;;
22131;SDS011;11232;51.748;19.390;2023-03-12T01:28:45;27.20;;;12.90;;
22131;SDS011;11232;51.748;19.390;2023-03-12T01:31:13;27.13;;;12.17;;
22131;SDS011;11232;51.748;19.390;2023-03-12T01:33:40;24.27;;;11.80;;
22131;SDS011;11232;51.748;19.390;2023-03-12T01:39:01;28.70;;;10.70;;
22131;SDS011;11232;51.748;19.390;2023-03-12T01:41:28;25.43;;;12.03;;
22131;SDS011;11232;51.748;19.390;2023-03-12T01:43:56;22.57;;;10.67;;
22131;SDS011;11232;51.748;19.390;2023-03-12T01:49:33;23.00;;;10.53;;
22131;SDS011;11232;51.748;19.390;2023-03-12T01:51:44;26.60;;;10.57;;
22131;SDS011;11232;51.748;19.390;2023-03-12T01:54:15;19.27;;;9.30;;
22131;SDS011;11232;51.748;19.390;2023-03-12T01:56:45;20.57;;;9.67;;
22131;SDS011;11232;51.748;19.390;2023-03-12T01:59:13;19.07;;;9.33;;
22131;SDS011;11232;51.748;19.390;2023-03-12T02:01:40;22.00;;;9.37;;
22131;SDS011;11232;51.748;19.390;2023-03-12T02:04:06;20.20;;;9.33;;
22131;SDS011;11232;51.748;19.390;2023-03-12T02:06:35;22.60;;;10.07;;
22131;SDS011;11232;51.748;19.390;2023-03-12T02:09:02;19.53;;;9.00;;
22131;SDS011;11232;51.748;19.390;2023-03-12T02:11:30;15.53;;;8.37;;
22131;SDS011;11232;51.748;19.390;2023-03-12T02:13:56;18.17;;;8.30;;
22131;SDS011;11232;51.748;19.390;2023-03-12T02:16:22;22.20;;;8.80;;
22131;SDS011;11232;51.748;19.390;2023-03-12T02:18:47;15.43;;;8.17;;
22131;SDS011;11232;51.748;19.390;2023-03-12T02:21:21;20.10;;;8.37;;
22131;SDS011;11232;51.748;19.390;2023-03-12T02:24:02;18.17;;;7.97;;
22131;SDS011;11232;51.748;19.390;2023-03-12T02:26:31;16.10;;;8.03;;
22131;SDS011;11232;51.748;19.390;2023-03-12T02:28:58;15.90;;;7.80;;
22131;SDS011;11232;51.748;19.390;2023-03-12T02:31:26;16.27;;;7.57;;
22131;SDS011;11232;51.748;19.390;2023-03-12T02:33:52;16.17;;;7.67;;
22131;SDS011;11232;51.748;19.390;2023-03-12T02:36:20;21.83;;;7.27;;
22131;SDS011;11232;51.748;19.390;2023-03-12T02:38:47;18.03;;;7.43;;
22131;SDS011;11232;51.748;19.390;2023-03-12T02:43:44;15.57;;;7.20;;
22131;SDS011;11232;51.748;19.390;2023-03-12T02:46:10;16.33;;;7.00;;
22131;SDS011;11232;51.748;19.390;2023-03-12T02:48:36;16.70;;;7.50;;
22131;SDS011;11232;51.748;19.390;2023-03-12T02:51:02;17.60;;;7.27;;
22131;SDS011;11232;51.748;19.390;2023-03-12T02:53:28;14.27;;;7.17;;
22131;SDS011;11232;51.748;19.390;2023-03-12T02:55:54;16.77;;;6.93;;
22131;SDS011;11232;51.748;19.390;2023-03-12T02:58:20;17.63;;;7.23;;
22131;SDS011;11232;51.748;19.390;2023-03-12T03:00:46;13.97;;;7.23;;
22131;SDS011;11232;51.748;19.390;2023-03-12T03:03:13;15.07;;;6.87;;
22131;SDS011;11232;51.748;19.390;2023-03-12T03:05:39;17.77;;;7.33;;
22131;SDS011;11232;51.748;19.390;2023-03-12T03:08:05;20.50;;;7.20;;
22131;SDS011;11232;51.748;19.390;2023-03-12T03:10:31;18.03;;;7.30;;
22131;SDS011;11232;51.748;19.390;2023-03-12T03:12:57;13.17;;;6.63;;
22131;SDS011;11232;51.748;19.390;2023-03-12T03:15:23;17.10;;;7.37;;
22131;SDS011;11232;51.748;19.390;2023-03-12T03:17:49;17.40;;;7.43;;
22131;SDS011;11232;51.748;19.390;2023-03-12T03:20:15;14.00;;;6.33;;
22131;SDS011;11232;51.748;19.390;2023-03-12T03:22:41;17.57;;;6.53;;
22131;SDS011;11232;51.748;19.390;2023-03-12T03:25:08;12.83;;;6.77;;
22131;SDS011;11232;51.748;19.390;2023-03-12T03:27:34;14.53;;;6.80;;
22131;SDS011;11232;51.748;19.390;2023-03-12T03:30:00;11.40;;;6.43;;
22131;SDS011;11232;51.748;19.390;2023-03-12T03:32:26;14.07;;;6.90;;
22131;SDS011;11232;51.748;19.390;2023-03-12T03:34:53;17.40;;;7.03;;
22131;SDS011;11232;51.748;19.390;2023-03-12T03:37:19;12.73;;;6.57;;
22131;SDS011;11232;51.748;19.390;2023-03-12T03:39:45;13.63;;;6.70;;
22131;SDS011;11232;51.748;19.390;2023-03-12T03:42:11;15.97;;;7.10;;
22131;SDS011;11232;51.748;19.390;2023-03-12T03:44:36;18.83;;;7.27;;
22131;SDS011;11232;51.748;19.390;2023-03-12T03:47:02;19.10;;;7.40;;
22131;SDS011;11232;51.748;19.390;2023-03-12T03:49:29;17.17;;;7.30;;
22131;SDS011;11232;51.748;19.390;2023-03-12T03:51:55;16.73;;;7.10;;
22131;SDS011;11232;51.748;19.390;2023-03-12T03:54:21;14.77;;;6.70;;
22131;SDS011;11232;51.748;19.390;2023-03-12T03:56:47;15.53;;;6.93;;
22131;SDS011;11232;51.748;19.390;2023-03-12T03:59:12;14.03;;;6.33;;
22131;SDS011;11232;51.748;19.390;2023-03-12T04:01:38;15.53;;;6.83;;
22131;SDS011;11232;51.748;19.390;2023-03-12T04:04:04;14.97;;;6.87;;
22131;SDS011;11232;51.748;19.390;2023-03-12T04:06:31;16.37;;;6.83;;
22131;SDS011;11232;51.748;19.390;2023-03-12T04:08:57;13.87;;;7.23;;
22131;SDS011;11232;51.748;19.390;2023-03-12T04:11:24;24.40;;;7.53;;
22131;SDS011;11232;51.748;19.390;2023-03-12T04:13:50;21.70;;;8.60;;
22131;SDS011;11232;51.748;19.390;2023-03-12T04:16:16;20.67;;;10.30;;
22131;SDS011;11232;51.748;19.390;2023-03-12T04:18:42;22.40;;;11.17;;
22131;SDS011;11232;51.748;19.390;2023-03-12T04:21:09;19.97;;;10.20;;
22131;SDS011;11232;51.748;19.390;2023-03-12T04:23:36;21.83;;;10.43;;
22131;SDS011;11232;51.748;19.390;2023-03-12T04:26:02;21.80;;;9.60;;
22131;SDS011;11232;51.748;19.390;2023-03-12T04:28:29;21.17;;;9.10;;
22131;SDS011;11232;51.748;19.390;2023-03-12T04:30:55;17.17;;;8.30;;
22131;SDS011;11232;51.748;19.390;2023-03-12T04:33:23;15.17;;;7.23;;
22131;SDS011;11232;51.748;19.390;2023-03-12T04:35:50;17.67;;;7.50;;
22131;SDS011;11232;51.748;19.390;2023-03-12T04:38:17;13.30;;;6.77;;
22131;SDS011;11232;51.748;19.390;2023-03-12T04:40:43;11.30;;;5.50;;
22131;SDS011;11232;51.748;19.390;2023-03-12T04:43:09;14.73;;;6.17;;
22131;SDS011;11232;51.748;19.390;2023-03-12T04:45:35;11.53;;;5.80;;
22131;SDS011;11232;51.748;19.390;2023-03-12T04:48:03;13.97;;;5.80;;
22131;SDS011;11232;51.748;19.390;2023-03-12T04:50:29;9.30;;;5.07;;
22131;SDS011;11232;51.748;19.390;2023-03-12T04:52:55;13.40;;;5.63;;
22131;SDS011;11232;51.748;19.390;2023-03-12T04:55:21;11.57;;;5.67;;
22131;SDS011;11232;51.748;19.390;2023-03-12T04:57:47;11.03;;;5.53;;
22131;SDS011;11232;51.748;19.390;2023-03-12T05:00:13;13.83;;;5.80;;
22131;SDS011;11232;51.748;19.390;2023-03-12T05:02:39;10.27;;;5.70;;
22131;SDS011;11232;51.748;19.390;2023-03-12T05:05:06;11.20;;;5.53;;
22131;SDS011;11232;51.748;19.390;2023-03-12T05:07:32;10.77;;;5.57;;
22131;SDS011;11232;51.748;19.390;2023-03-12T05:09:58;11.50;;;5.10;;
22131;SDS011;11232;51.748;19.390;2023-03-12T05:12:24;9.97;;;4.93;;
22131;SDS011;11232;51.748;19.390;2023-03-12T05:14:50;7.80;;;4.87;;
22131;SDS011;11232;51.748;19.390;2023-03-12T05:17:16;9.43;;;4.83;;
22131;SDS011;11232;51.748;19.390;2023-03-12T05:19:42;10.73;;;4.63;;
22131;SDS011;11232;51.748;19.390;2023-03-12T05:22:08;11.63;;;5.20;;
22131;SDS011;11232;51.748;19.390;2023-03-12T05:24:34;10.67;;;5.57;;
22131;SDS011;11232;51.748;19.390;2023-03-12T05:27:00;10.53;;;5.27;;
22131;SDS011;11232;51.748;19.390;2023-03-12T05:29:26;9.77;;;4.63;;
22131;SDS011;11232;51.748;19.390;2023-03-12T05:31:53;12.27;;;5.07;;
22131;SDS011;11232;51.748;19.390;2023-03-12T05:34:19;11.10;;;5.10;;
22131;SDS011;11232;51.748;19.390;2023-03-12T05:36:45;13.67;;;5.00;;
22131;SDS011;11232;51.748;19.390;2023-03-12T05:39:11;8.17;;;4.83;;
22131;SDS011;11232;51.748;19.390;2023-03-12T05:41:37;8.47;;;4.77;;
22131;SDS011;11232;51.748;19.390;2023-03-12T05:44:04;12.40;;;5.13;;
22131;SDS011;11232;51.748;19.390;2023-03-12T05:46:30;12.27;;;4.87;;
22131;SDS011;11232;51.748;19.390;2023-03-12T05:48:56;10.40;;;5.57;;
22131;SDS011;11232;51.748;19.390;2023-03-12T05:51:22;11.67;;;5.30;;
22131;SDS011;11232;51.748;19.390;2023-03-12T05:53:47;11.17;;;5.67;;
22131;SDS011;11232;51.748;19.390;2023-03-12T05:56:14;12.73;;;6.20;;
22131;SDS011;11232;51.748;19.390;2023-03-12T05:58:40;11.13;;;5.10;;
22131;SDS011;11232;51.748;19.390;2023-03-12T06:01:11;12.90;;;5.37;;
22131;SDS011;11232;51.748;19.390;2023-03-12T06:03:38;19.53;;;6.20;;
22131;SDS011;11232;51.748;19.390;2023-03-12T06:06:04;13.53;;;5.97;;
22131;SDS011;11232;51.748;19.390;2023-03-12T06:08:30;11.50;;;5.63;;
22131;SDS011;11232;51.748;19.390;2023-03-12T06:10:56;13.23;;;6.57;;
22131;SDS011;11232;51.748;19.390;2023-03-12T06:13:23;12.10;;;5.97;;
22131;SDS011;11232;51.748;19.390;2023-03-12T06:15:49;12.93;;;5.60;;
22131;SDS011;11232;51.748;19.390;2023-03-12T06:18:15;10.87;;;5.67;;
22131;SDS011;11232;51.748;19.390;2023-03-12T06:20:41;12.67;;;6.30;;
22131;SDS011;11232;51.748;19.390;2023-03-12T06:23:07;13.33;;;6.63;;
22131;SDS011;11232;51.748;19.390;2023-03-12T06:25:33;12.13;;;6.13;;
22131;SDS011;11232;51.748;19.390;2023-03-12T06:27:59;12.93;;;6.17;;
22131;SDS011;11232;51.748;19.390;2023-03-12T06:30:25;13.07;;;6.33;;
22131;SDS011;11232;51.748;19.390;2023-03-12T06:32:51;11.20;;;6.57;;
22131;SDS011;11232;51.748;19.390;2023-03-12T06:35:17;11.43;;;5.83;;
22131;SDS011;11232;51.748;19.390;2023-03-12T06:37:43;11.73;;;5.63;;
22131;SDS011;11232;51.748;19.390;2023-03-12T06:40:09;12.47;;;6.03;;
22131;SDS011;11232;51.748;19.390;2023-03-12T06:42:36;10.60;;;6.13;;
22131;SDS011;11232;51.748;19.390;2023-03-12T06:45:03;17.90;;;5.77;;
22131;SDS011;11232;51.748;19.390;2023-03-12T06:47:29;12.70;;;6.00;;
22131;SDS011;11232;51.748;19.390;2023-03-12T06:49:55;10.50;;;6.23;;
22131;SDS011;11232;51.748;19.390;2023-03-12T06:52:21;9.47;;;5.37;;
22131;SDS011;11232;51.748;19.390;2023-03-12T06:54:47;14.50;;;6.47;;
22131;SDS011;11232;51.748;19.390;2023-03-12T06:57:13;14.20;;;6.83;;
22131;SDS011;11232;51.748;19.390;2023-03-12T06:59:40;12.13;;;5.60;;
22131;SDS011;11232;51.748;19.390;2023-03-12T07:02:08;10.50;;;6.10;;
22131;SDS011;11232;51.748;19.390;2023-03-12T07:04:37;12.20;;;6.53;;
22131;SDS011;11232;51.748;19.390;2023-03-12T07:07:03;9.03;;;5.07;;
22131;SDS011;11232;51.748;19.390;2023-03-12T07:09:29;8.53;;;5.50;;
22131;SDS011;11232;51.748;19.390;2023-03-12T07:11:55;10.07;;;6.27;;
22131;SDS011;11232;51.748;19.390;2023-03-12T07:14:21;10.43;;;5.60;;
22131;SDS011;11232;51.748;19.390;2023-03-12T07:16:50;9.50;;;5.70;;
22131;SDS011;11232;51.748;19.390;2023-03-12T07:19:16;10.47;;;6.10;;
22131;SDS011;11232;51.748;19.390;2023-03-12T07:21:43;9.47;;;5.90;;
22131;SDS011;11232;51.748;19.390;2023-03-12T07:24:09;13.03;;;5.63;;
22131;SDS011;11232;51.748;19.390;2023-03-12T07:26:38;13.20;;;5.97;;
22131;SDS011;11232;51.748;19.390;2023-03-12T07:29:04;10.97;;;5.37;;
22131;SDS011;11232;51.748;19.390;2023-03-12T07:31:32;9.57;;;5.30;;
22131;SDS011;11232;51.748;19.390;2023-03-12T07:33:59;10.20;;;4.93;;
22131;SDS011;11232;51.748;19.390;2023-03-12T07:36:26;14.57;;;5.13;;
22131;SDS011;11232;51.748;19.390;2023-03-12T07:38:56;9.97;;;5.00;;
22131;SDS011;11232;51.748;19.390;2023-03-12T07:41:25;7.20;;;4.30;;
22131;SDS011;11232;51.748;19.390;2023-03-12T07:43:51;10.50;;;4.80;;
22131;SDS011;11232;51.748;19.390;2023-03-12T07:46:20;6.20;;;4.20;;
22131;SDS011;11232;51.748;19.390;2023-03-12T07:48:46;9.70;;;4.33;;
22131;SDS011;11232;51.748;19.390;2023-03-12T07:51:12;8.67;;;4.40;;
22131;SDS011;11232;51.748;19.390;2023-03-12T07:53:38;8.03;;;4.60;;
22131;SDS011;11232;51.748;19.390;2023-03-12T07:56:04;7.67;;;4.10;;
22131;SDS011;11232;51.748;19.390;2023-03-12T07:58:30;9.50;;;4.33;;
22131;SDS011;11232;51.748;19.390;2023-03-12T08:00:56;7.53;;;4.20;;
22131;SDS011;11232;51.748;19.390;2023-03-12T08:03:22;7.63;;;3.70;;
22131;SDS011;11232;51.748;19.390;2023-03-12T08:05:55;7.07;;;4.00;;
22131;SDS011;11232;51.748;19.390;2023-03-12T08:08:22;8.03;;;3.53;;
22131;SDS011;11232;51.748;19.390;2023-03-12T08:10:48;7.93;;;3.77;;
22131;SDS011;11232;51.748;19.390;2023-03-12T08:13:14;12.57;;;4.03;;
22131;SDS011;11232;51.748;19.390;2023-03-12T08:15:43;5.67;;;3.43;;
22131;SDS011;11232;51.748;19.390;2023-03-12T08:18:11;8.67;;;3.77;;
22131;SDS011;11232;51.748;19.390;2023-03-12T08:20:37;4.87;;;3.20;;
22131;SDS011;11232;51.748;19.390;2023-03-12T08:23:03;5.07;;;3.00;;
22131;SDS011;11232;51.748;19.390;2023-03-12T08:25:29;9.47;;;3.40;;
22131;SDS011;11232;51.748;19.390;2023-03-12T08:27:55;6.97;;;3.03;;
22131;SDS011;11232;51.748;19.390;2023-03-12T08:30:21;5.37;;;2.90;;
22131;SDS011;11232;51.748;19.390;2023-03-12T08:32:47;7.07;;;3.00;;
22131;SDS011;11232;51.748;19.390;2023-03-12T08:35:13;4.93;;;2.97;;
22131;SDS011;11232;51.748;19.390;2023-03-12T08:37:39;6.33;;;3.10;;
22131;SDS011;11232;51.748;19.390;2023-03-12T08:40:08;7.33;;;2.70;;
22131;SDS011;11232;51.748;19.390;2023-03-12T08:42:38;4.27;;;2.70;;
22131;SDS011;11232;51.748;19.390;2023-03-12T08:45:04;8.30;;;2.87;;
22131;SDS011;11232;51.748;19.390;2023-03-12T08:47:30;4.50;;;2.70;;
22131;SDS011;11232;51.748;19.390;2023-03-12T08:49:59;8.27;;;3.17;;
22131;SDS011;11232;51.748;19.390;2023-03-12T08:52:25;7.00;;;2.30;;
22131;SDS011;11232;51.748;19.390;2023-03-12T08:54:51;5.40;;;1.93;;
22131;SDS011;11232;51.748;19.390;2023-03-12T08:57:17;7.20;;;2.17;;
22131;SDS011;11232;51.748;19.390;2023-03-12T08:59:43;5.03;;;2.20;;
22131;SDS011;11232;51.748;19.390;2023-03-12T09:02:10;7.00;;;2.40;;
22131;SDS011;11232;51.748;19.390;2023-03-12T09:04:36;5.38;;;2.72;;
22131;SDS011;11232;51.748;19.390;2023-03-12T09:07:03;5.15;;;2.47;;
22131;SDS011;11232;51.748;19.390;2023-03-12T09:09:29;7.72;;;2.83;;
22131;SDS011;11232;51.748;19.390;2023-03-12T09:11:55;5.13;;;2.47;;
22131;SDS011;11232;51.748;19.390;2023-03-12T09:14:21;4.05;;;2.10;;
22131;SDS011;11232;51.748;19.390;2023-03-12T09:16:47;5.53;;;3.10;;
22131;SDS011;11232;51.748;19.390;2023-03-12T09:19:13;7.30;;;3.45;;
22131;SDS011;11232;51.748;19.390;2023-03-12T09:21:39;5.72;;;2.63;;
22131;SDS011;11232;51.748;19.390;2023-03-12T09:24:06;6.20;;;2.67;;
22131;SDS011;11232;51.748;19.390;2023-03-12T09:26:32;5.00;;;2.65;;
22131;SDS011;11232;51.748;19.390;2023-03-12T09:28:58;5.75;;;2.95;;
22131;SDS011;11232;51.748;19.390;2023-03-12T09:31:24;6.22;;;2.70;;
22131;SDS011;11232;51.748;19.390;2023-03-12T09:33:50;4.68;;;2.70;;
22131;SDS011;11232;51.748;19.390;2023-03-12T09:36:17;7.75;;;2.47;;
22131;SDS011;11232;51.748;19.390;2023-03-12T09:38:43;4.60;;;2.80;;
22131;SDS011;11232;51.748;19.390;2023-03-12T09:41:25;3.90;;;2.25;;
22131;SDS011;11232;51.748;19.390;2023-03-12T09:46:26;4.85;;;2.25;;
22131;SDS011;11232;51.748;19.390;2023-03-12T09:48:54;7.38;;;3.08;;
22131;SDS011;11232;51.748;19.390;2023-03-12T09:51:30;5.25;;;2.30;;
22131;SDS011;11232;51.748;19.390;2023-03-12T09:53:59;3.17;;;2.20;;
22131;SDS011;11232;51.748;19.390;2023-03-12T09:56:27;3.53;;;1.90;;
22131;SDS011;11232;51.748;19.390;2023-03-12T09:58:53;8.43;;;2.20;;
22131;SDS011;11232;51.748;19.390;2023-03-12T10:04:15;2.70;;;1.87;;
22131;SDS011;11232;51.748;19.390;2023-03-12T10:06:42;4.87;;;2.30;;
22131;SDS011;11232;51.748;19.390;2023-03-12T10:09:18;4.37;;;2.30;;
22131;SDS011;11232;51.748;19.390;2023-03-12T10:14:40;5.97;;;3.00;;
22131;SDS011;11232;51.748;19.390;2023-03-12T10:25:27;6.23;;;2.03;;
22131;SDS011;11232;51.748;19.390;2023-03-12T10:27:58;2.93;;;2.17;;
22131;SDS011;11232;51.748;19.390;2023-03-12T10:30:27;5.55;;;2.05;;
22131;SDS011;11232;51.748;19.390;2023-03-12T10:32:57;4.65;;;2.42;;
22131;SDS011;11232;51.748;19.390;2023-03-12T10:35:25;2.65;;;1.95;;
22131;SDS011;11232;51.748;19.390;2023-03-12T10:38:02;4.65;;;2.30;;
22131;SDS011;11232;51.748;19.390;2023-03-12T10:40:33;4.57;;;2.10;;
22131;SDS011;11232;51.748;19.390;2023-03-12T10:43:00;7.82;;;2.00;;
22131;SDS011;11232;51.748;19.390;2023-03-12T10:45:29;4.38;;;1.88;;
22131;SDS011;11232;51.748;19.390;2023-03-12T10:48:03;2.22;;;1.70;;
22131;SDS011;11232;51.748;19.390;2023-03-12T10:50:31;6.97;;;2.28;;
22131;SDS011;11232;51.748;19.390;2023-03-12T10:56:06;5.07;;;2.22;;
22131;SDS011;11232;51.748;19.390;2023-03-12T10:58:34;8.10;;;2.45;;
22131;SDS011;11232;51.748;19.390;2023-03-12T11:01:00;4.82;;;2.42;;
22131;SDS011;11232;51.748;19.390;2023-03-12T11:03:27;4.32;;;2.30;;
22131;SDS011;11232;51.748;19.390;2023-03-12T11:05:55;5.32;;;2.30;;
22131;SDS011;11232;51.748;19.390;2023-03-12T11:08:30;6.68;;;2.30;;
22131;SDS011;11232;51.748;19.390;2023-03-12T11:10:58;4.82;;;2.28;;
22131;SDS011;11232;51.748;19.390;2023-03-12T11:15:51;8.30;;;3.00;;
22131;SDS011;11232;51.748;19.390;2023-03-12T11:20:43;4.47;;;2.33;;
22131;SDS011;11232;51.748;19.390;2023-03-12T11:23:16;4.80;;;2.27;;
22131;SDS011;11232;51.748;19.390;2023-03-12T11:25:50;6.77;;;2.40;;
22131;SDS011;11232;51.748;19.390;2023-03-12T11:28:18;4.35;;;2.13;;
22131;SDS011;11232;51.748;19.390;2023-03-12T11:30:48;4.80;;;2.55;;
22131;SDS011;11232;51.748;19.390;2023-03-12T11:33:14;5.20;;;2.40;;
22131;SDS011;11232;51.748;19.390;2023-03-12T11:38:30;5.25;;;2.47;;
22131;SDS011;11232;51.748;19.390;2023-03-12T12:01:18;5.78;;;2.50;;
22131;SDS011;11232;51.748;19.390;2023-03-12T12:06:30;6.30;;;2.67;;
22131;SDS011;11232;51.748;19.390;2023-03-12T12:14:12;3.30;;;1.90;;
22131;SDS011;11232;51.748;19.390;2023-03-12T12:16:47;8.43;;;2.25;;
22131;SDS011;11232;51.748;19.390;2023-03-12T12:32:19;5.55;;;2.20;;
22131;SDS011;11232;51.748;19.390;2023-03-12T12:37:43;4.93;;;2.17;;
22131;SDS011;11232;51.748;19.390;2023-03-12T12:40:19;5.33;;;2.07;;
22131;SDS011;11232;51.748;19.390;2023-03-12T12:42:48;4.43;;;2.13;;
22131;SDS011;11232;51.748;19.390;2023-03-12T12:45:15;5.33;;;2.30;;
22131;SDS011;11232;51.748;19.390;2023-03-12T12:47:46;6.93;;;2.10;;
22131;SDS011;11232;51.748;19.390;2023-03-12T12:50:15;3.67;;;2.07;;
22131;SDS011;11232;51.748;19.390;2023-03-12T12:52:42;9.03;;;2.63;;
22131;SDS011;11232;51.748;19.390;2023-03-12T12:55:14;4.30;;;2.40;;
22131;SDS011;11232;51.748;19.390;2023-03-12T13:00:42;5.27;;;2.50;;
22131;SDS011;11232;51.748;19.390;2023-03-12T13:03:11;6.63;;;2.57;;
22131;SDS011;11232;51.748;19.390;2023-03-12T13:05:40;6.07;;;2.63;;
22131;SDS011;11232;51.748;19.390;2023-03-12T13:08:09;6.93;;;2.70;;
22131;SDS011;11232;51.748;19.390;2023-03-12T13:10:54;7.87;;;2.60;;
22131;SDS011;11232;51.748;19.390;2023-03-12T13:13:21;7.87;;;2.57;;
22131;SDS011;11232;51.748;19.390;2023-03-12T13:15:48;3.43;;;2.17;;
22131;SDS011;11232;51.748;19.390;2023-03-12T13:18:20;7.10;;;3.13;;
22131;SDS011;11232;51.748;19.390;2023-03-12T13:31:41;5.50;;;2.33;;
22131;SDS011;11232;51.748;19.390;2023-03-12T13:33:46;8.63;;;2.67;;
22131;SDS011;11232;51.748;19.390;2023-03-12T13:38:58;9.17;;;2.43;;
22131;SDS011;11232;51.748;19.390;2023-03-12T13:43:56;4.80;;;2.30;;
22131;SDS011;11232;51.748;19.390;2023-03-12T13:46:27;5.90;;;2.30;;
22131;SDS011;11232;51.748;19.390;2023-03-12T13:48:56;5.83;;;2.67;;
22131;SDS011;11232;51.748;19.390;2023-03-12T13:51:24;6.47;;;2.60;;
22131;SDS011;11232;51.748;19.390;2023-03-12T13:53:52;5.43;;;2.33;;
22131;SDS011;11232;51.748;19.390;2023-03-12T13:56:19;7.40;;;3.10;;
22131;SDS011;11232;51.748;19.390;2023-03-12T13:58:58;4.50;;;2.40;;
22131;SDS011;11232;51.748;19.390;2023-03-12T14:01:28;6.27;;;2.43;;
22131;SDS011;11232;51.748;19.390;2023-03-12T14:03:56;6.67;;;2.57;;
22131;SDS011;11232;51.748;19.390;2023-03-12T14:06:24;9.60;;;3.17;;
22131;SDS011;11232;51.748;19.390;2023-03-12T14:17:18;6.33;;;2.73;;
22131;SDS011;11232;51.748;19.390;2023-03-12T14:19:46;6.27;;;2.87;;
22131;SDS011;11232;51.748;19.390;2023-03-12T14:22:12;7.10;;;3.17;;
22131;SDS011;11232;51.748;19.390;2023-03-12T14:24:40;6.43;;;2.53;;
22131;SDS011;11232;51.748;19.390;2023-03-12T14:27:11;5.47;;;2.57;;
22131;SDS011;11232;51.748;19.390;2023-03-12T14:29:46;6.30;;;3.03;;
22131;SDS011;11232;51.748;19.390;2023-03-12T14:32:21;7.13;;;3.00;;
22131;SDS011;11232;51.748;19.390;2023-03-12T14:34:53;5.87;;;2.33;;
22131;SDS011;11232;51.748;19.390;2023-03-12T14:37:21;5.97;;;3.00;;
22131;SDS011;11232;51.748;19.390;2023-03-12T14:39:56;6.77;;;3.00;;
22131;SDS011;11232;51.748;19.390;2023-03-12T14:42:28;9.57;;;3.97;;
22131;SDS011;11232;51.748;19.390;2023-03-12T14:45:03;5.93;;;3.13;;
22131;SDS011;11232;51.748;19.390;2023-03-12T14:47:38;9.90;;;3.50;;
22131;SDS011;11232;51.748;19.390;2023-03-12T14:50:05;8.30;;;3.17;;
22131;SDS011;11232;51.748;19.390;2023-03-12T14:52:31;7.37;;;3.37;;
22131;SDS011;11232;51.748;19.390;2023-03-12T14:54:59;8.03;;;3.07;;
22131;SDS011;11232;51.748;19.390;2023-03-12T14:57:25;9.93;;;3.50;;
22131;SDS011;11232;51.748;19.390;2023-03-12T14:59:58;10.37;;;3.37;;
22131;SDS011;11232;51.748;19.390;2023-03-12T15:02:24;7.07;;;3.37;;
22131;SDS011;11232;51.748;19.390;2023-03-12T15:04:51;9.77;;;3.27;;
22131;SDS011;11232;51.748;19.390;2023-03-12T15:07:21;5.97;;;2.97;;
22131;SDS011;11232;51.748;19.390;2023-03-12T15:09:48;7.90;;;2.97;;
22131;SDS011;11232;51.748;19.390;2023-03-12T15:14:43;9.23;;;3.33;;
22131;SDS011;11232;51.748;19.390;2023-03-12T15:17:17;7.73;;;3.23;;
22131;SDS011;11232;51.748;19.390;2023-03-12T15:19:44;5.77;;;2.97;;
22131;SDS011;11232;51.748;19.390;2023-03-12T15:22:12;8.80;;;3.33;;
22131;SDS011;11232;51.748;19.390;2023-03-12T15:24:39;8.50;;;3.30;;
22131;SDS011;11232;51.748;19.390;2023-03-12T15:29:52;7.93;;;3.27;;
22131;SDS011;11232;51.748;19.390;2023-03-12T15:32:19;8.07;;;3.33;;
22131;SDS011;11232;51.748;19.390;2023-03-12T15:34:45;9.87;;;3.60;;
22131;SDS011;11232;51.748;19.390;2023-03-12T15:40:06;11.60;;;3.50;;
22131;SDS011;11232;51.748;19.390;2023-03-12T15:42:41;7.93;;;3.30;;
22131;SDS011;11232;51.748;19.390;2023-03-12T15:45:18;6.73;;;3.67;;
22131;SDS011;11232;51.748;19.390;2023-03-12T15:47:45;11.10;;;4.23;;
22131;SDS011;11232;51.748;19.390;2023-03-12T15:50:16;8.93;;;3.57;;
22131;SDS011;11232;51.748;19.390;2023-03-12T15:53:00;9.60;;;3.80;;
22131;SDS011;11232;51.748;19.390;2023-03-12T15:55:27;10.33;;;3.93;;
22131;SDS011;11232;51.748;19.390;2023-03-12T15:57:54;9.53;;;4.00;;
22131;SDS011;11232;51.748;19.390;2023-03-12T16:00:25;12.47;;;4.00;;
22131;SDS011;11232;51.748;19.390;2023-03-12T16:02:55;11.27;;;4.07;;
22131;SDS011;11232;51.748;19.390;2023-03-12T16:05:40;8.93;;;4.17;;
22131;SDS011;11232;51.748;19.390;2023-03-12T16:10:35;10.97;;;4.37;;
22131;SDS011;11232;51.748;19.390;2023-03-12T16:13:02;12.10;;;4.40;;
22131;SDS011;11232;51.748;19.390;2023-03-12T16:15:33;10.80;;;4.07;;
22131;SDS011;11232;51.748;19.390;2023-03-12T16:18:00;10.03;;;4.10;;
22131;SDS011;11232;51.748;19.390;2023-03-12T16:20:27;8.70;;;3.90;;
22131;SDS011;11232;51.748;19.390;2023-03-12T16:22:53;11.57;;;3.90;;
22131;SDS011;11232;51.748;19.390;2023-03-12T16:25:19;7.77;;;4.40;;